Time;durP1;ratioP1;P1;durP2;ratioP2;P2;SDS_P1;SDS_P2;PMS_P1;PMS_P2;Temp;Humidity;BMP_temperature;BMP_pressure;BME280_temperature;BME280_humidity;BME280_pressure;Samples;Min_cycle;Max_cycle;Signal;HPM_P1;HPM_P2
2022/04/30 00:00:42;;;;;;;6.85;6.00;;;;;;;16.27;38.40;93829.78;5049668;28;20450;-81
2022/04/30 00:03:09;;;;;;;7.22;5.90;;;;;;;16.28;38.40;93821.13;5066875;28;20495;-81
2022/04/30 00:05:34;;;;;;;7.68;5.35;;;;;;;16.27;38.79;93829.78;5068104;28;20046;-83
2022/04/30 00:08:00;;;;;;;6.82;6.00;;;;;;;16.29;38.82;93824.59;5049983;28;20036;-81
2022/04/30 00:10:26;;;;;;;6.47;5.82;;;;;;;16.28;38.56;93820.38;5032434;28;20230;-82
2022/04/30 00:12:52;;;;;;;6.85;5.90;;;;;;;16.27;38.55;93827.81;5053334;28;20033;-81
2022/04/30 00:15:17;;;;;;;5.82;5.28;;;;;;;16.27;38.48;93825.09;5046069;28;20145;-81
2022/04/30 00:17:43;;;;;;;6.55;5.78;;;;;;;16.28;38.77;93823.09;5047337;28;20029;-81
2022/04/30 00:20:08;;;;;;;8.10;6.00;;;;;;;16.27;38.37;93824.34;5046144;28;20370;-81
2022/04/30 00:22:34;;;;;;;6.10;5.47;;;;;;;16.27;38.60;93824.34;5047608;28;20874;-81
2022/04/30 00:25:00;;;;;;;6.93;5.63;;;;;;;16.27;38.67;93833.25;5029649;28;20511;-82
2022/04/30 00:27:25;;;;;;;6.82;5.68;;;;;;;16.27;38.68;93821.59;5012811;28;20036;-81
2022/04/30 00:29:52;;;;;;;6.72;5.88;;;;;;;16.27;38.73;93829.78;5046238;28;20036;-81
2022/04/30 00:32:17;;;;;;;6.40;5.68;;;;;;;16.27;38.53;93832.50;5030307;28;20044;-82
2022/04/30 00:34:42;;;;;;;6.13;5.50;;;;;;;16.27;38.58;93816.16;5031443;28;20028;-81
2022/04/30 00:37:08;;;;;;;6.00;5.03;;;;;;;16.27;38.66;93816.16;5026185;28;20329;-81
2022/04/30 00:39:35;;;;;;;6.50;5.75;;;;;;;16.26;38.42;93815.41;5030159;28;20037;-82
2022/04/30 00:42:00;;;;;;;6.45;5.68;;;;;;;16.27;38.58;93807.97;5013904;28;20032;-82
2022/04/30 00:44:26;;;;;;;6.47;5.40;;;;;;;16.25;38.61;93813.16;5045517;28;20037;-82
2022/04/30 00:46:51;;;;;;;7.32;5.78;;;;;;;16.26;38.60;93801.75;5065723;28;20045;-81
2022/04/30 00:49:16;;;;;;;7.05;5.65;;;;;;;16.26;38.65;93803.75;5015410;28;20045;-81
2022/04/30 00:51:45;;;;;;;6.72;5.30;;;;;;;16.26;38.51;93795.56;5029794;28;20033;-81
2022/04/30 00:54:11;;;;;;;6.53;5.72;;;;;;;16.27;38.57;93805.97;5046119;28;20033;-81
2022/04/30 00:56:45;;;;;;;6.22;5.38;;;;;;;16.25;38.81;93800.25;5046117;28;20033;-81
2022/04/30 00:59:13;;;;;;;6.85;5.55;;;;;;;16.25;38.70;93799.53;5066851;28;20137;-82
2022/04/30 01:01:38;;;;;;;6.22;5.57;;;;;;;16.25;38.36;93803.00;5049784;28;20051;-81
2022/04/30 01:04:07;;;;;;;6.03;5.43;;;;;;;16.26;38.60;93799.03;5067822;28;20399;-83
2022/04/30 01:06:49;;;;;;;7.10;6.05;;;;;;;16.24;38.59;93790.59;5069493;28;20343;-81
2022/04/30 01:09:24;;;;;;;6.60;5.35;;;;;;;16.24;38.50;93798.78;5069203;28;20517;-81
2022/04/30 01:12:04;;;;;;;5.95;5.35;;;;;;;16.24;38.49;93798.06;5049879;28;20092;-81
2022/04/30 01:14:31;;;;;;;6.03;5.43;;;;;;;16.25;38.44;93797.53;5051244;28;20040;-81
2022/04/30 01:16:57;;;;;;;6.25;5.65;;;;;;;16.24;38.52;93792.59;5033262;28;20025;-81
2022/04/30 01:19:23;;;;;;;6.15;5.22;;;;;;;16.23;38.70;93800.03;5016435;28;20422;-82
2022/04/30 01:21:50;;;;;;;6.15;5.50;;;;;;;16.24;38.62;93798.06;5025056;28;20491;-81
2022/04/30 01:24:19;;;;;;;6.43;5.32;;;;;;;16.23;38.86;93786.41;5052685;28;20041;-82
2022/04/30 01:26:45;;;;;;;6.80;5.03;;;;;;;16.24;38.46;93787.84;5052982;28;20396;-82
2022/04/30 01:29:10;;;;;;;7.45;5.40;;;;;;;16.23;38.57;93788.38;5069252;28;20033;-81
2022/04/30 01:39:48;;;;;;;6.07;5.38;;;;;;;16.24;38.64;93789.88;5049746;28;20037;-81
2022/04/30 01:42:17;;;;;;;5.90;5.30;;;;;;;16.22;38.59;93779.44;5049514;28;20041;-81
2022/04/30 01:44:46;;;;;;;6.25;5.55;;;;;;;16.22;38.67;93784.91;5033058;28;20045;-82
2022/04/30 01:47:12;;;;;;;6.15;5.45;;;;;;;16.21;38.75;93780.69;5067533;28;20494;-81
2022/04/30 01:49:37;;;;;;;5.60;4.97;;;;;;;16.21;38.98;93780.69;5034106;28;20527;-81
2022/04/30 01:52:07;;;;;;;6.00;5.40;;;;;;;16.22;38.50;93775.97;5049068;28;20083;-81
2022/04/30 01:54:32;;;;;;;7.22;5.88;;;;;;;16.22;38.62;93776.72;5032834;28;20037;-82
2022/04/30 01:56:57;;;;;;;5.60;5.00;;;;;;;16.22;38.69;93768.53;5050436;28;20411;-82
2022/04/30 01:59:23;;;;;;;6.40;5.28;;;;;;;16.22;38.38;93765.06;5067712;28;20523;-81
2022/04/30 02:01:48;;;;;;;5.90;5.30;;;;;;;16.22;38.65;93770.50;5068259;28;20495;-82
2022/04/30 02:04:14;;;;;;;6.68;5.28;;;;;;;16.19;38.54;93766.78;5035458;28;20036;-81
2022/04/30 02:06:39;;;;;;;7.10;6.07;;;;;;;16.21;38.46;93758.84;5051691;28;20041;-81
2022/04/30 02:09:05;;;;;;;6.30;5.60;;;;;;;16.21;38.40;93761.59;5032548;28;20037;-81
2022/04/30 02:11:30;;;;;;;6.95;5.63;;;;;;;16.23;38.67;93758.38;5068465;28;20058;-81
2022/04/30 02:13:56;;;;;;;6.45;5.55;;;;;;;16.20;38.76;93754.63;5032235;28;20041;-81
2022/04/30 02:16:23;;;;;;;6.03;5.30;;;;;;;16.20;38.45;93753.88;5013323;28;20052;-82
2022/04/30 02:18:48;;;;;;;5.82;4.97;;;;;;;16.20;38.55;93756.63;5049321;28;20064;-81
2022/04/30 02:21:13;;;;;;;6.78;5.97;;;;;;;16.19;38.79;93749.66;5048744;28;20040;-81
2022/04/30 02:23:39;;;;;;;6.85;5.97;;;;;;;16.19;38.40;93750.41;5068961;28;20040;-81
2022/04/30 02:26:05;;;;;;;5.85;5.20;;;;;;;16.18;38.50;93748.91;5051390;28;20402;-81
2022/04/30 02:28:30;;;;;;;6.57;5.88;;;;;;;16.18;38.89;93743.47;5051927;28;20032;-81
2022/04/30 02:30:56;;;;;;;6.50;5.20;;;;;;;16.20;38.68;93737.53;5051545;28;20381;-81
2022/04/30 02:33:22;;;;;;;7.15;5.60;;;;;;;16.18;38.60;93729.81;5051446;28;20488;-82
2022/04/30 02:35:47;;;;;;;6.00;5.22;;;;;;;16.18;38.74;93735.28;5068074;28;20045;-82
2022/04/30 02:38:13;;;;;;;6.10;5.35;;;;;;;16.16;38.55;93737.75;5034332;28;20032;-82
2022/04/30 02:40:40;;;;;;;6.10;5.28;;;;;;;16.18;38.51;93738.00;5031949;28;20032;-81
2022/04/30 02:43:08;;;;;;;4.50;4.10;;;;;;;16.18;38.62;93742.72;5011608;28;20503;-81
2022/04/30 02:45:35;;;;;;;6.63;5.45;;;;;;;16.19;38.94;93741.47;5016641;28;20033;-82
2022/04/30 02:48:02;;;;;;;6.10;5.50;;;;;;;16.18;38.79;93738.00;5068050;28;20408;-82
2022/04/30 02:50:28;;;;;;;5.65;4.97;;;;;;;16.17;38.32;93739.25;5067176;28;20495;-81
2022/04/30 02:52:56;;;;;;;6.05;5.45;;;;;;;16.19;38.54;93738.75;5069401;28;20040;-81
2022/04/30 02:55:23;;;;;;;5.47;4.93;;;;;;;16.18;38.69;93737.25;5067921;28;20071;-82
2022/04/30 03:00:39;;;;;;;7.07;5.43;;;;;;;16.19;38.48;93727.84;5053312;28;20127;-81
2022/04/30 03:03:06;;;;;;;4.78;4.32;;;;;;;16.17;38.67;93717.41;5051481;28;20045;-81
2022/04/30 03:05:32;;;;;;;6.45;5.85;;;;;;;16.16;38.46;93721.38;5052098;28;20074;-81
2022/04/30 03:07:58;;;;;;;5.50;4.70;;;;;;;16.16;38.74;93713.19;5067292;28;20170;-83
2022/04/30 03:10:24;;;;;;;6.80;4.90;;;;;;;16.15;38.38;93711.69;5068002;28;20465;-82
2022/04/30 03:12:49;;;;;;;6.20;5.40;;;;;;;16.17;38.60;93716.66;5053485;28;20037;-81
2022/04/30 03:15:17;;;;;;;6.40;5.57;;;;;;;16.17;38.47;93717.41;5047502;28;20041;-81
2022/04/30 03:23:11;;;;;;;6.30;5.50;;;;;;;16.15;39.03;93708.22;5046902;28;20139;-81
2022/04/30 03:25:37;;;;;;;5.55;5.03;;;;;;;16.15;38.75;93708.97;5051110;28;20040;-81
2022/04/30 03:28:02;;;;;;;6.20;5.60;;;;;;;16.17;38.53;93708.50;5066453;28;20036;-81
2022/04/30 03:30:28;;;;;;;5.50;5.00;;;;;;;16.15;38.61;93716.41;5049530;28;20426;-82
2022/04/30 03:32:54;;;;;;;7.47;5.60;;;;;;;16.14;38.59;93718.41;5050553;28;20040;-81
2022/04/30 03:35:19;;;;;;;6.07;4.97;;;;;;;16.14;38.63;93712.19;5049727;28;20041;-81
2022/04/30 03:37:45;;;;;;;5.57;4.80;;;;;;;16.14;38.77;93707.47;5054321;28;20072;-81
2022/04/30 03:40:10;;;;;;;6.68;5.32;;;;;;;16.14;38.80;93715.66;5029905;28;20052;-81
2022/04/30 03:42:37;;;;;;;5.13;4.63;;;;;;;16.13;38.87;93714.16;5047252;28;20041;-81
2022/04/30 03:45:03;;;;;;;7.03;5.47;;;;;;;16.15;38.57;93713.69;5047037;28;20083;-83
2022/04/30 03:47:28;;;;;;;7.78;5.40;;;;;;;16.12;38.60;93715.41;5061207;28;20471;-81
2022/04/30 03:49:54;;;;;;;6.30;5.70;;;;;;;16.13;38.44;93713.44;5067783;28;20036;-82
2022/04/30 03:52:19;;;;;;;6.07;5.47;;;;;;;16.14;38.55;93715.66;5067535;28;20035;-82
2022/04/30 03:54:44;;;;;;;6.00;4.60;;;;;;;16.13;38.74;93719.63;5054534;28;20118;-80
2022/04/30 03:57:10;;;;;;;6.38;5.03;;;;;;;16.15;38.82;93713.69;5029493;28;20041;-81
2022/04/30 03:59:35;;;;;;;6.32;5.00;;;;;;;16.13;38.61;93711.44;5027869;28;20052;-81
2022/04/30 04:02:01;;;;;;;5.80;4.60;;;;;;;16.13;38.56;93700.53;5066822;28;20049;-81
2022/04/30 04:04:27;;;;;;;6.03;5.22;;;;;;;16.13;38.47;93706.00;5065982;28;20040;-82
2022/04/30 04:06:53;;;;;;;5.93;5.18;;;;;;;16.11;38.50;93698.28;5033227;28;20041;-81
2022/04/30 04:09:18;;;;;;;6.13;5.15;;;;;;;16.11;38.64;93686.63;5049188;28;20043;-82
2022/04/30 04:11:44;;;;;;;5.82;5.22;;;;;;;16.13;38.81;93689.63;5046271;28;20523;-81
2022/04/30 04:19:40;;;;;;;7.65;5.07;;;;;;;16.12;38.51;93688.13;5047233;28;20594;-81
2022/04/30 04:22:06;;;;;;;7.30;5.65;;;;;;;16.11;38.82;93698.28;5030570;28;20037;-81
2022/04/30 04:27:17;;;;;;;6.93;5.10;;;;;;;16.14;38.47;93691.13;5051983;28;20091;-82
2022/04/30 04:29:42;;;;;;;6.72;5.60;;;;;;;16.12;38.69;93699.03;5067572;28;20033;-82
2022/04/30 04:32:08;;;;;;;5.30;4.80;;;;;;;16.11;38.85;93698.28;5049002;28;20120;-81
2022/04/30 04:34:33;;;;;;;5.55;4.40;;;;;;;16.13;38.33;93694.34;5049405;28;20047;-81
2022/04/30 04:36:59;;;;;;;5.90;5.32;;;;;;;16.11;38.75;93692.84;5043627;28;20045;-82
2022/04/30 04:39:24;;;;;;;5.82;5.22;;;;;;;16.14;38.75;93693.09;5028425;28;20099;-82
2022/04/30 04:41:49;;;;;;;6.95;5.35;;;;;;;16.13;38.57;93697.06;5047539;28;20044;-81
2022/04/30 04:44:15;;;;;;;6.32;5.50;;;;;;;16.13;38.64;93695.09;5045761;28;20352;-82
2022/04/30 04:46:40;;;;;;;6.50;5.78;;;;;;;16.13;38.60;93689.63;5051575;28;20033;-82
2022/04/30 04:49:06;;;;;;;6.47;5.35;;;;;;;16.12;38.37;93693.59;5041560;28;20064;-82
2022/04/30 04:51:33;;;;;;;5.68;5.07;;;;;;;16.13;38.67;93694.34;5029697;28;20029;-81
2022/04/30 04:53:58;;;;;;;6.07;4.72;;;;;;;16.13;38.73;93691.59;5029803;28;20041;-81
2022/04/30 04:56:23;;;;;;;7.10;5.47;;;;;;;16.13;38.47;93695.09;5029411;28;20044;-81
2022/04/30 04:58:49;;;;;;;5.57;5.00;;;;;;;16.13;38.67;93686.91;5050962;28;20047;-81
2022/04/30 05:01:17;;;;;;;5.75;5.00;;;;;;;16.12;38.79;93693.59;5066184;28;20044;-81
2022/04/30 05:03:43;;;;;;;5.38;4.68;;;;;;;16.13;38.58;93695.09;5049611;28;20033;-81
2022/04/30 05:06:08;;;;;;;6.10;5.22;;;;;;;16.14;38.75;93684.91;5065557;28;20098;-81
2022/04/30 05:08:34;;;;;;;5.80;5.20;;;;;;;16.14;38.75;93690.38;5048968;28;20040;-81
2022/04/30 05:10:59;;;;;;;6.97;5.00;;;;;;;16.14;38.46;93691.13;5048420;28;20037;-83
2022/04/30 05:13:24;;;;;;;5.65;4.78;;;;;;;16.14;38.75;93693.84;5047407;28;20037;-81
2022/04/30 05:15:50;;;;;;;5.75;5.15;;;;;;;16.13;38.67;93695.09;5046047;28;20106;-81
2022/04/30 05:18:15;;;;;;;5.82;4.85;;;;;;;16.15;38.21;93698.06;5045515;28;20033;-83
2022/04/30 05:20:41;;;;;;;6.22;5.28;;;;;;;16.15;38.73;93687.16;5046937;28;20060;-81
2022/04/30 05:23:06;;;;;;;6.05;5.15;;;;;;;16.14;39.08;93688.41;5035669;28;20082;-81
2022/04/30 05:25:32;;;;;;;6.53;5.20;;;;;;;16.16;38.60;93693.34;5066169;28;20086;-81
2022/04/30 05:27:57;;;;;;;6.43;4.90;;;;;;;16.17;38.38;93686.66;5049193;28;20044;-82
2022/04/30 05:30:23;;;;;;;5.88;5.13;;;;;;;16.18;38.28;93694.38;5048378;28;20044;-81
2022/04/30 05:32:48;;;;;;;5.13;4.63;;;;;;;16.18;38.55;93694.38;5049028;28;20499;-83
2022/04/30 05:35:14;;;;;;;6.90;5.10;;;;;;;16.19;38.70;93698.59;5048479;28;20063;-81
2022/04/30 05:37:40;;;;;;;5.40;4.90;;;;;;;16.22;38.82;93702.31;5054284;28;20036;-81
2022/04/30 05:40:06;;;;;;;5.82;5.18;;;;;;;16.23;38.55;93701.09;5044798;28;20037;-82
2022/04/30 05:42:32;;;;;;;5.97;5.38;;;;;;;16.25;38.37;93704.78;5046106;28;20037;-81
2022/04/30 05:44:58;;;;;;;5.43;4.90;;;;;;;16.26;38.43;93706.28;5029043;28;20570;-83
2022/04/30 05:47:24;;;;;;;6.20;5.45;;;;;;;16.27;38.37;93710.50;5036430;28;20495;-82
2022/04/30 05:49:49;;;;;;;5.90;5.05;;;;;;;16.29;38.34;93713.50;5031311;28;20041;-82
2022/04/30 05:52:15;;;;;;;5.72;5.20;;;;;;;16.29;38.32;93715.47;5069368;28;20070;-86
2022/04/30 05:54:40;;;;;;;6.05;5.35;;;;;;;16.31;38.47;93711.03;5052896;28;20044;-82
2022/04/30 05:57:05;;;;;;;7.15;5.70;;;;;;;16.32;38.77;93717.97;5052017;28;20044;-82
2022/04/30 05:59:31;;;;;;;6.15;5.20;;;;;;;16.33;38.27;93722.19;5050906;28;20286;-82
2022/04/30 06:01:56;;;;;;;6.68;5.32;;;;;;;16.30;38.68;93704.06;5051998;28;20051;-83
2022/04/30 06:04:22;;;;;;;6.35;5.50;;;;;;;16.34;38.43;93706.56;5052073;28;20041;-81
2022/04/30 06:06:47;;;;;;;6.60;5.55;;;;;;;16.34;38.70;93701.88;5070317;28;20036;-84
2022/04/30 06:09:13;;;;;;;5.47;4.68;;;;;;;16.35;38.64;93699.88;5051542;28;20032;-82
2022/04/30 06:11:39;;;;;;;5.88;5.25;;;;;;;16.35;38.32;93703.38;5048189;28;20029;-82
2022/04/30 06:14:04;;;;;;;7.22;6.00;;;;;;;16.36;38.40;93693.19;5031942;28;20360;-82
2022/04/30 06:16:30;;;;;;;6.15;5.55;;;;;;;16.37;38.51;93695.44;5032393;28;20795;-81
2022/04/30 06:18:55;;;;;;;7.53;5.35;;;;;;;16.40;38.66;93701.91;5048518;28;20033;-83
2022/04/30 06:21:22;;;;;;;8.55;5.20;;;;;;;16.42;38.67;93696.69;5047857;28;20036;-82
2022/04/30 06:23:47;;;;;;;7.22;6.18;;;;;;;16.42;38.40;93713.06;5041562;28;20033;-81
2022/04/30 06:26:13;;;;;;;5.85;5.25;;;;;;;16.44;38.55;93711.34;5051870;28;20090;-81
2022/04/30 06:28:39;;;;;;;6.35;5.72;;;;;;;16.45;38.54;93710.09;5035451;28;20047;-81
2022/04/30 06:31:04;;;;;;;6.90;5.07;;;;;;;16.47;38.45;93706.88;5050817;28;20044;-81
2022/04/30 06:33:30;;;;;;;6.32;4.97;;;;;;;16.48;38.49;93708.34;5069931;28;20037;-82
2022/04/30 06:35:55;;;;;;;5.40;4.85;;;;;;;16.51;38.22;93707.38;5051552;28;20037;-81
2022/04/30 06:38:21;;;;;;;5.60;4.97;;;;;;;16.51;38.46;93706.63;5027816;28;20390;-82
2022/04/30 06:40:47;;;;;;;5.80;4.50;;;;;;;16.53;38.25;93706.88;5023516;28;20030;-81
2022/04/30 06:43:13;;;;;;;5.97;4.88;;;;;;;16.55;38.49;93696.97;5028221;28;20076;-82
2022/04/30 06:45:38;;;;;;;5.53;4.88;;;;;;;16.53;38.50;93696.72;5044712;28;20044;-85
2022/04/30 06:48:04;;;;;;;5.40;4.90;;;;;;;16.55;38.48;93699.72;5067438;28;20106;-81
2022/04/30 06:50:30;;;;;;;4.78;4.28;;;;;;;16.56;38.29;93698.47;5067601;28;20391;-81
2022/04/30 06:58:23;;;;;;;10.52;5.50;;;;;;;16.56;37.86;93701.19;5068095;28;20108;-81
2022/04/30 07:03:23;;;;;;;10.68;6.43;;;;;;;16.59;37.89;93699.47;5067205;28;20040;-83
2022/04/30 07:06:04;;;;;;;8.80;5.57;;;;;;;16.61;37.88;93697.00;5051884;28;20024;-83
2022/04/30 07:08:33;;;;;;;8.65;5.68;;;;;;;16.63;37.92;93700.00;5069295;28;20033;-82
2022/04/30 07:10:59;;;;;;;11.90;6.15;;;;;;;16.64;37.84;93691.34;5067021;28;20040;-81
2022/04/30 07:13:25;;;;;;;10.65;6.00;;;;;;;16.66;37.85;93693.56;5044410;28;20095;-81
2022/04/30 07:15:51;;;;;;;8.57;5.68;;;;;;;16.65;37.77;93689.34;5031633;28;20041;-82
2022/04/30 07:18:16;;;;;;;9.35;5.57;;;;;;;16.65;38.08;93692.09;5047231;28;20472;-82
2022/04/30 07:20:42;;;;;;;7.28;5.70;;;;;;;16.66;37.89;93680.69;5030271;28;20504;-81
2022/04/30 07:23:08;;;;;;;7.75;5.45;;;;;;;16.68;37.63;93689.09;5031278;28;20041;-82
2022/04/30 07:25:33;;;;;;;6.15;5.50;;;;;;;16.71;37.76;93676.44;5051071;28;20548;-81
2022/04/30 07:27:58;;;;;;;7.40;5.50;;;;;;;16.72;37.79;93686.88;5051184;28;20523;-82
2022/04/30 07:30:24;;;;;;;5.90;5.30;;;;;;;16.74;37.52;93680.94;5067740;28;20483;-85
2022/04/30 07:32:49;;;;;;;7.13;5.75;;;;;;;16.74;37.71;93676.22;5045208;28;20036;-82
2022/04/30 07:35:15;;;;;;;11.63;5.60;;;;;;;16.75;37.94;93682.41;5033203;28;20066;-82
2022/04/30 07:37:40;;;;;;;7.13;5.85;;;;;;;16.76;37.92;93679.19;5045907;28;20036;-81
2022/04/30 07:40:08;;;;;;;9.32;5.90;;;;;;;16.76;37.68;93675.72;5050121;28;20032;-82
2022/04/30 07:42:33;;;;;;;6.88;6.18;;;;;;;16.77;38.02;93675.22;5061311;28;20044;-82
2022/04/30 07:44:59;;;;;;;7.07;5.38;;;;;;;16.77;37.97;93675.22;5030440;28;20037;-82
2022/04/30 07:47:26;;;;;;;7.40;5.55;;;;;;;16.83;38.19;93675.25;5031833;28;20037;-82
2022/04/30 07:49:51;;;;;;;8.13;6.07;;;;;;;16.78;37.82;93668.53;5050231;28;20036;-82
2022/04/30 07:52:17;;;;;;;6.78;5.82;;;;;;;16.79;38.04;93672.00;5033066;28;20039;-83
2022/04/30 07:54:43;;;;;;;6.22;5.15;;;;;;;16.85;37.77;93667.31;5050162;28;20039;-82
2022/04/30 07:57:08;;;;;;;6.35;5.75;;;;;;;16.84;38.02;93670.53;5033911;28;20048;-82
2022/04/30 07:59:34;;;;;;;6.78;5.88;;;;;;;16.82;37.89;93684.69;5049609;28;20051;-82
2022/04/30 08:01:59;;;;;;;6.65;5.93;;;;;;;16.83;37.91;93660.84;5042399;28;20037;-83
2022/04/30 08:04:26;;;;;;;6.97;6.15;;;;;;;16.81;38.04;93666.81;5030333;28;20037;-82
2022/04/30 08:06:52;;;;;;;7.25;6.35;;;;;;;16.83;37.87;93658.13;5030278;28;20040;-82
2022/04/30 08:09:17;;;;;;;7.88;5.85;;;;;;;16.83;37.91;93655.38;5013359;28;20037;-82
2022/04/30 08:11:43;;;;;;;10.13;5.55;;;;;;;16.82;38.01;93679.22;5049220;28;20036;-84
2022/04/30 08:14:08;;;;;;;7.20;6.03;;;;;;;16.84;37.99;93663.09;5065134;28;20079;-81
2022/04/30 08:16:34;;;;;;;7.18;6.13;;;;;;;16.84;37.79;93667.81;5050454;28;20036;-82
2022/04/30 08:18:59;;;;;;;6.70;6.00;;;;;;;16.84;37.81;93667.81;5049468;28;20067;-81
2022/04/30 08:21:25;;;;;;;6.22;5.63;;;;;;;16.85;37.70;93661.09;5033209;28;20095;-81
2022/04/30 08:23:50;;;;;;;8.52;5.97;;;;;;;16.89;38.12;93664.34;5033417;28;20067;-81
2022/04/30 08:26:17;;;;;;;6.57;5.50;;;;;;;16.85;37.87;93655.66;5033008;28;20037;-82
2022/04/30 08:28:42;;;;;;;6.88;6.18;;;;;;;16.85;37.95;93659.13;5010232;28;20038;-82
2022/04/30 08:31:08;;;;;;;6.97;6.20;;;;;;;16.85;37.66;93659.13;4993052;28;20037;-81
2022/04/30 08:33:33;;;;;;;6.88;6.18;;;;;;;16.85;37.73;93655.66;5032064;28;20071;-83
2022/04/30 08:35:59;;;;;;;7.28;6.57;;;;;;;16.90;38.03;93663.06;5033499;28;20475;-82
2022/04/30 08:38:24;;;;;;;7.18;6.47;;;;;;;16.86;37.74;93654.41;5047913;28;20021;-82
2022/04/30 08:40:49;;;;;;;6.88;6.28;;;;;;;16.85;37.72;93652.91;5029530;28;20044;-82
2022/04/30 08:43:15;;;;;;;8.63;6.57;;;;;;;16.84;37.64;93656.88;5028837;28;20041;-83
2022/04/30 08:45:42;;;;;;;9.32;6.57;;;;;;;16.85;37.94;93647.44;5013334;28;20039;-81
2022/04/30 08:48:11;;;;;;;7.30;6.60;;;;;;;16.83;37.74;93644.47;5034387;28;20037;-82
2022/04/30 08:50:37;;;;;;;7.43;6.13;;;;;;;16.85;37.63;93650.19;5049821;28;20029;-81
2022/04/30 08:53:03;;;;;;;6.72;6.05;;;;;;;16.84;37.67;93659.59;5049372;28;20102;-81
2022/04/30 08:55:28;;;;;;;7.30;6.50;;;;;;;16.83;38.06;93647.94;5065732;28;20098;-81
2022/04/30 08:57:54;;;;;;;6.90;5.80;;;;;;;16.83;37.84;93653.41;5033065;28;20037;-81
2022/04/30 09:00:19;;;;;;;7.28;6.53;;;;;;;16.82;37.91;93648.44;5064901;28;20044;-82
2022/04/30 09:02:50;;;;;;;7.57;6.45;;;;;;;16.82;37.86;93654.66;5032644;28;20123;-81
2022/04/30 09:05:16;;;;;;;;;;;;;;;16.83;38.03;93653.41;5049554;28;20491;-81
2022/04/30 09:07:41;;;;;;;7.70;6.80;;;;;;;16.82;37.82;93654.66;5066296;28;20003;-82
2022/04/30 09:10:07;;;;;;;6.78;6.07;;;;;;;16.83;37.68;93652.66;5048560;28;20261;-82
2022/04/30 09:12:33;;;;;;;8.25;6.68;;;;;;;16.83;37.76;93650.69;5044902;28;20499;-81
2022/04/30 09:14:59;;;;;;;6.65;5.78;;;;;;;16.81;37.74;93650.41;5049325;28;20047;-82
2022/04/30 09:17:26;;;;;;;6.15;5.55;;;;;;;16.83;37.62;93649.94;5049295;28;20032;-82
2022/04/30 09:19:52;;;;;;;7.47;6.25;;;;;;;16.84;37.94;93652.16;5049340;28;20048;-81
2022/04/30 09:22:33;;;;;;;7.43;6.38;;;;;;;16.81;37.63;93652.41;5050963;28;20040;-82
2022/04/30 09:24:59;;;;;;;8.15;6.47;;;;;;;16.83;37.89;93647.19;5049668;28;20123;-82
2022/04/30 09:27:25;;;;;;;7.88;6.72;;;;;;;16.83;37.77;93649.94;5052628;28;20579;-82
2022/04/30 09:29:50;;;;;;;7.22;6.53;;;;;;;16.83;37.51;93644.47;5052860;28;20112;-83
2022/04/30 09:32:23;;;;;;;8.55;6.13;;;;;;;16.82;37.38;93648.44;5052316;28;20043;-81
2022/04/30 09:37:42;;;;;;;7.68;6.68;;;;;;;16.81;37.72;93644.22;5038268;28;20032;-82
2022/04/30 09:40:16;;;;;;;7.00;6.03;;;;;;;16.81;37.83;93639.50;5028831;28;20030;-84
2022/04/30 09:42:42;;;;;;;6.88;5.93;;;;;;;16.83;38.08;93639.00;5029374;28;20041;-82
2022/04/30 09:45:08;;;;;;;8.20;6.32;;;;;;;16.84;37.61;93630.31;4996332;28;20064;-82
2022/04/30 09:47:34;;;;;;;7.72;6.93;;;;;;;16.83;37.42;93630.81;5012943;28;20124;-81
2022/04/30 09:53:56;;;;;;;7.95;7.15;;;;;;;16.83;37.82;93634.28;5035152;28;20036;-82
2022/04/30 09:55:53;;;;;;;7.63;6.93;;;;;;;16.83;37.94;93622.63;5049082;28;20044;-81
2022/04/30 09:58:25;;;;;;;;;;;;;;;16.85;37.81;93612.69;5049279;28;20033;-82
2022/04/30 10:00:58;;;;;;;9.07;6.93;;;;;;;16.83;37.73;93617.16;5038504;28;20383;-84
2022/04/30 10:03:25;;;;;;;8.20;7.15;;;;;;;16.83;37.80;93622.63;5051182;28;20040;-81
2022/04/30 10:05:51;;;;;;;7.50;6.63;;;;;;;16.81;38.04;93600.53;5052618;28;20044;-83
2022/04/30 10:08:16;;;;;;;8.05;6.70;;;;;;;16.82;37.69;93607.47;5051783;28;20036;-84
2022/04/30 10:10:51;;;;;;;7.28;5.72;;;;;;;16.85;37.95;93606.50;5052406;28;20420;-83
2022/04/30 10:13:22;;;;;;;8.45;7.13;;;;;;;16.84;38.21;93597.56;5045116;28;20036;-82
2022/04/30 10:15:52;;;;;;;6.82;6.18;;;;;;;16.87;37.99;93614.94;5052860;28;20104;-82
2022/04/30 10:18:19;;;;;;;8.55;7.15;;;;;;;16.84;37.73;93608.47;5051784;28;20032;-82
2022/04/30 10:20:51;;;;;;;7.32;6.30;;;;;;;16.86;37.71;93608.72;5066717;28;20514;-86
2022/04/30 10:23:17;;;;;;;8.18;6.97;;;;;;;16.85;38.03;93595.56;5031642;28;20033;-82
2022/04/30 10:25:43;;;;;;;7.20;6.47;;;;;;;16.84;37.68;93605.00;5060886;28;20073;-86
2022/04/30 10:28:15;;;;;;;7.32;6.57;;;;;;;16.85;37.96;93611.97;5051434;28;20056;-82
2022/04/30 10:30:41;;;;;;;7.15;6.45;;;;;;;16.87;37.29;93606.75;5070188;28;20036;-82
2022/04/30 10:33:08;;;;;;;7.30;6.60;;;;;;;16.86;37.56;93595.09;5051557;28;20039;-81
2022/04/30 10:35:36;;;;;;;7.43;6.10;;;;;;;16.87;37.59;93598.56;5034813;28;20128;-82
2022/04/30 10:38:09;;;;;;;8.52;7.07;;;;;;;16.85;37.66;93596.31;5034199;28;20403;-82
2022/04/30 10:40:40;;;;;;;7.93;6.93;;;;;;;16.84;38.07;93592.09;5051713;28;20036;-82
2022/04/30 10:43:19;;;;;;;8.63;7.43;;;;;;;16.85;37.99;93593.59;5051791;28;20052;-84
2022/04/30 10:45:45;;;;;;;8.05;6.80;;;;;;;16.86;37.74;93588.88;5068163;28;20115;-81
2022/04/30 10:48:10;;;;;;;7.45;6.50;;;;;;;16.86;37.61;93597.06;5050986;28;20448;-82
2022/04/30 10:50:36;;;;;;;7.95;7.05;;;;;;;16.87;37.67;93596.56;5044851;28;20099;-82
2022/04/30 10:53:01;;;;;;;8.18;6.55;;;;;;;16.90;37.94;93592.06;5031904;28;20055;-82
2022/04/30 10:55:26;;;;;;;7.90;6.30;;;;;;;16.90;37.59;93592.06;5030728;28;20041;-81
2022/04/30 10:57:52;;;;;;;7.32;6.53;;;;;;;16.90;37.69;93595.56;5031352;28;20064;-81
2022/04/30 11:00:17;;;;;;;7.80;6.60;;;;;;;16.90;38.11;93589.34;5030376;28;20041;-82
2022/04/30 11:02:43;;;;;;;7.35;6.18;;;;;;;16.89;37.90;93577.69;5050107;28;20041;-82
2022/04/30 11:05:18;;;;;;;7.88;6.47;;;;;;;16.87;37.78;93579.44;5050643;28;20042;-82
2022/04/30 11:07:44;;;;;;;7.10;6.10;;;;;;;16.89;37.79;93579.69;5067864;28;20515;-82
2022/04/30 11:10:10;;;;;;;7.68;6.47;;;;;;;16.91;38.03;93588.09;5050851;28;20089;-82
2022/04/30 11:12:36;;;;;;;7.28;6.53;;;;;;;16.92;37.91;93579.41;5042289;28;20041;-82
2022/04/30 11:15:01;;;;;;;7.72;6.40;;;;;;;16.90;38.00;93586.63;5067126;28;20093;-82
2022/04/30 11:17:27;;;;;;;6.78;6.07;;;;;;;16.92;37.73;93584.13;5033879;28;20029;-82
2022/04/30 11:19:55;;;;;;;8.40;7.13;;;;;;;16.91;37.72;93591.59;5050908;28;20044;-82
2022/04/30 11:22:20;;;;;;;7.15;6.45;;;;;;;16.88;38.05;93578.94;5032245;28;20072;-82
2022/04/30 11:24:46;;;;;;;6.97;6.35;;;;;;;16.87;37.79;93565.78;5014200;28;20029;-82
2022/04/30 11:27:12;;;;;;;7.65;6.68;;;;;;;16.89;37.68;93571.50;5050376;28;20045;-82
2022/04/30 11:29:48;;;;;;;6.63;5.93;;;;;;;16.89;37.96;93579.69;5050864;28;20024;-82
2022/04/30 11:32:23;;;;;;;8.13;7.22;;;;;;;16.89;37.92;93572.22;5033529;28;20036;-82
2022/04/30 11:34:49;;;;;;;6.20;5.60;;;;;;;16.87;37.93;93569.28;5050830;28;20032;-83
2022/04/30 11:37:15;;;;;;;8.85;6.22;;;;;;;16.93;37.76;93564.53;5004768;28;20088;-82
2022/04/30 11:39:40;;;;;;;7.88;6.28;;;;;;;16.90;37.54;93565.53;5009406;28;20045;-82
2022/04/30 11:42:06;;;;;;;6.35;5.75;;;;;;;16.89;38.19;93566.75;5009509;28;20590;-82
2022/04/30 11:44:32;;;;;;;7.65;6.63;;;;;;;16.89;38.04;93553.09;5025583;28;20508;-82
2022/04/30 11:46:57;;;;;;;8.20;6.63;;;;;;;16.89;37.90;93560.59;5009159;28;20038;-82
2022/04/30 11:49:24;;;;;;;7.38;6.57;;;;;;;16.92;37.79;93554.09;4991109;28;20049;-82
2022/04/30 11:51:50;;;;;;;7.00;6.30;;;;;;;16.88;37.81;93553.63;5009495;28;20041;-83
2022/04/30 11:54:18;;;;;;;7.25;6.00;;;;;;;16.87;38.01;93552.88;4992432;28;20037;-82
2022/04/30 11:56:43;;;;;;;8.07;7.28;;;;;;;16.88;38.20;93551.66;4976326;28;20033;-82
2022/04/30 11:59:09;;;;;;;9.50;6.25;;;;;;;16.88;37.99;93551.66;5008048;28;20064;-82
2022/04/30 12:01:36;;;;;;;6.60;5.90;;;;;;;16.90;38.09;93543.69;5008289;28;20045;-82
2022/04/30 12:04:08;;;;;;;7.95;7.15;;;;;;;16.90;38.07;93548.38;4976541;28;20112;-81
2022/04/30 12:06:34;;;;;;;7.72;6.45;;;;;;;16.93;37.79;93548.16;5009560;28;20060;-82
2022/04/30 12:08:59;;;;;;;7.10;6.05;;;;;;;16.92;38.09;93546.66;5054768;28;20036;-83